sensor_id;sensor_type;location;lat;lon;timestamp;temperature;humidity
1091;DHT22;534;48.704;9.122;2023-02-08T04:01:35;0.30;59.90
1091;DHT22;534;48.704;9.122;2023-02-08T04:04:04;0.30;59.70
1091;DHT22;534;48.704;9.122;2023-02-08T04:06:31;0.30;60.50
1091;DHT22;534;48.704;9.122;2023-02-08T04:08:58;0.40;59.80
1091;DHT22;534;48.704;9.122;2023-02-08T04:11:24;0.40;59.90
1091;DHT22;534;48.704;9.122;2023-02-08T04:13:51;0.30;59.80
1091;DHT22;534;48.704;9.122;2023-02-08T04:16:18;0.40;59.30
1091;DHT22;534;48.704;9.122;2023-02-08T04:18:46;0.40;58.60
1091;DHT22;534;48.704;9.122;2023-02-08T04:21:12;0.40;59.00
1091;DHT22;534;48.704;9.122;2023-02-08T04:23:39;0.30;59.20
1091;DHT22;534;48.704;9.122;2023-02-08T04:26:06;0.30;59.30
1091;DHT22;534;48.704;9.122;2023-02-08T04:28:33;0.40;59.70
1091;DHT22;534;48.704;9.122;2023-02-08T04:31:00;0.40;59.50
1091;DHT22;534;48.704;9.122;2023-02-08T04:33:27;0.40;59.20
1091;DHT22;534;48.704;9.122;2023-02-08T04:35:55;0.40;59.50
1091;DHT22;534;48.704;9.122;2023-02-08T04:38:22;0.40;59.80
1091;DHT22;534;48.704;9.122;2023-02-08T04:40:48;0.40;60.40
1091;DHT22;534;48.704;9.122;2023-02-08T04:43:15;0.40;59.80
1091;DHT22;534;48.704;9.122;2023-02-08T04:45:42;0.40;59.70
1091;DHT22;534;48.704;9.122;2023-02-08T04:48:08;0.30;60.10
1091;DHT22;534;48.704;9.122;2023-02-08T04:50:35;0.30;59.40
1091;DHT22;534;48.704;9.122;2023-02-08T04:53:03;0.30;59.30
1091;DHT22;534;48.704;9.122;2023-02-08T04:55:30;0.30;59.90
1091;DHT22;534;48.704;9.122;2023-02-08T04:57:57;0.10;61.00
1091;DHT22;534;48.704;9.122;2023-02-08T05:00:24;0.10;61.80
1091;DHT22;534;48.704;9.122;2023-02-08T05:02:52;0.10;62.40
1091;DHT22;534;48.704;9.122;2023-02-08T05:05:19;0.10;62.90
1091;DHT22;534;48.704;9.122;2023-02-08T05:07:45;0.00;63.40
1091;DHT22;534;48.704;9.122;2023-02-08T05:10:14;0.10;63.30
1091;DHT22;534;48.704;9.122;2023-02-08T05:12:40;0.10;63.40
1091;DHT22;534;48.704;9.122;2023-02-08T05:15:07;0.10;63.80
1091;DHT22;534;48.704;9.122;2023-02-08T05:17:34;0.20;64.20
1091;DHT22;534;48.704;9.122;2023-02-08T05:20:01;0.20;64.40
1091;DHT22;534;48.704;9.122;2023-02-08T05:22:28;0.20;64.40
1091;DHT22;534;48.704;9.122;2023-02-08T05:24:55;0.10;64.60
1091;DHT22;534;48.704;9.122;2023-02-08T05:27:23;0.10;64.60
1091;DHT22;534;48.704;9.122;2023-02-08T05:29:50;0.10;64.80
1091;DHT22;534;48.704;9.122;2023-02-08T05:32:17;0.10;64.80
1091;DHT22;534;48.704;9.122;2023-02-08T05:34:43;0.10;64.70
1091;DHT22;534;48.704;9.122;2023-02-08T05:37:10;0.00;64.80
1091;DHT22;534;48.704;9.122;2023-02-08T05:39:38;0.00;64.80
1091;DHT22;534;48.704;9.122;2023-02-08T05:42:05;-0.10;65.20
1091;DHT22;534;48.704;9.122;2023-02-08T05:44:33;-0.10;65.40
1091;DHT22;534;48.704;9.122;2023-02-08T05:47:00;-0.20;65.40
1091;DHT22;534;48.704;9.122;2023-02-08T05:49:28;-0.20;65.40
1091;DHT22;534;48.704;9.122;2023-02-08T05:51:55;-0.10;65.00
1091;DHT22;534;48.704;9.122;2023-02-08T05:54:21;-0.10;64.90
1091;DHT22;534;48.704;9.122;2023-02-08T05:56:48;-0.10;64.90
1091;DHT22;534;48.704;9.122;2023-02-08T05:59:14;-0.10;65.20
1091;DHT22;534;48.704;9.122;2023-02-08T06:01:42;-0.10;65.00
1091;DHT22;534;48.704;9.122;2023-02-08T06:04:09;-0.10;64.60
1091;DHT22;534;48.704;9.122;2023-02-08T06:06:36;0.00;64.40
1091;DHT22;534;48.704;9.122;2023-02-08T06:09:02;0.00;64.00
1091;DHT22;534;48.704;9.122;2023-02-08T06:11:29;-0.10;63.80
1091;DHT22;534;48.704;9.122;2023-02-08T06:13:56;-0.10;63.90
1091;DHT22;534;48.704;9.122;2023-02-08T06:16:23;-0.10;63.60
1091;DHT22;534;48.704;9.122;2023-02-08T06:18:50;-0.10;62.90
1091;DHT22;534;48.704;9.122;2023-02-08T06:21:17;-0.10;62.70
1091;DHT22;534;48.704;9.122;2023-02-08T06:23:44;-0.10;62.40
1091;DHT22;534;48.704;9.122;2023-02-08T06:26:10;0.00;62.20
1091;DHT22;534;48.704;9.122;2023-02-08T06:28:37;0.00;61.60
1091;DHT22;534;48.704;9.122;2023-02-08T06:31:04;-0.10;61.50
1091;DHT22;534;48.704;9.122;2023-02-08T06:33:31;-0.10;61.60
1091;DHT22;534;48.704;9.122;2023-02-08T06:35:59;-0.10;61.20
1091;DHT22;534;48.704;9.122;2023-02-08T06:38:26;-0.10;61.40
1091;DHT22;534;48.704;9.122;2023-02-08T06:40:52;-0.10;61.30
1091;DHT22;534;48.704;9.122;2023-02-08T06:43:19;0.00;60.60
1091;DHT22;534;48.704;9.122;2023-02-08T06:45:46;-0.10;60.40
1091;DHT22;534;48.704;9.122;2023-02-08T06:48:13;0.00;60.50
1091;DHT22;534;48.704;9.122;2023-02-08T06:50:40;0.00;60.70
1091;DHT22;534;48.704;9.122;2023-02-08T06:53:08;0.00;60.70
1091;DHT22;534;48.704;9.122;2023-02-08T06:55:35;0.00;60.30
1091;DHT22;534;48.704;9.122;2023-02-08T06:58:01;0.00;60.20
1091;DHT22;534;48.704;9.122;2023-02-08T07:00:28;0.10;59.70
1091;DHT22;534;48.704;9.122;2023-02-08T07:02:55;0.10;59.40
1091;DHT22;534;48.704;9.122;2023-02-08T07:05:22;0.20;59.10
1091;DHT22;534;48.704;9.122;2023-02-08T07:07:48;0.20;58.80
1091;DHT22;534;48.704;9.122;2023-02-08T07:10:16;0.30;58.80
1091;DHT22;534;48.704;9.122;2023-02-08T07:12:43;0.60;58.50
1091;DHT22;534;48.704;9.122;2023-02-08T07:15:11;1.60;57.60
1091;DHT22;534;48.704;9.122;2023-02-08T07:17:38;3.20;54.60
1091;DHT22;534;48.704;9.122;2023-02-08T07:20:06;5.00;50.90
1091;DHT22;534;48.704;9.122;2023-02-08T07:22:33;6.80;47.40
1091;DHT22;534;48.704;9.122;2023-02-08T07:25:00;8.40;43.80
1091;DHT22;534;48.704;9.122;2023-02-08T07:27:28;10.00;40.60
1091;DHT22;534;48.704;9.122;2023-02-08T07:29:55;11.30;38.40
1091;DHT22;534;48.704;9.122;2023-02-08T07:32:21;12.60;36.70
1091;DHT22;534;48.704;9.122;2023-02-08T07:34:48;13.90;34.50
1091;DHT22;534;48.704;9.122;2023-02-08T07:37:15;15.00;32.50
1091;DHT22;534;48.704;9.122;2023-02-08T07:39:41;16.00;31.20
1091;DHT22;534;48.704;9.122;2023-02-08T07:42:09;17.00;30.30
1091;DHT22;534;48.704;9.122;2023-02-08T07:44:37;17.90;29.30
1091;DHT22;534;48.704;9.122;2023-02-08T07:47:04;18.80;28.20
1091;DHT22;534;48.704;9.122;2023-02-08T07:49:32;19.60;27.20
1091;DHT22;534;48.704;9.122;2023-02-08T07:51:59;20.30;26.70
1091;DHT22;534;48.704;9.122;2023-02-08T07:54:26;20.80;25.70
1091;DHT22;534;48.704;9.122;2023-02-08T07:56:52;21.40;25.20
1091;DHT22;534;48.704;9.122;2023-02-08T07:59:19;22.00;25.10
1091;DHT22;534;48.704;9.122;2023-02-08T08:01:47;22.60;24.10
1091;DHT22;534;48.704;9.122;2023-02-08T08:04:14;23.10;23.60
1091;DHT22;534;48.704;9.122;2023-02-08T08:06:40;23.20;23.10
1091;DHT22;534;48.704;9.122;2023-02-08T08:09:07;22.20;22.90
1091;DHT22;534;48.704;9.122;2023-02-08T08:11:34;21.60;23.40
1091;DHT22;534;48.704;9.122;2023-02-08T08:14:00;21.10;24.10
1091;DHT22;534;48.704;9.122;2023-02-08T08:16:27;21.50;24.10
1091;DHT22;534;48.704;9.122;2023-02-08T08:18:55;21.10;24.20
1091;DHT22;534;48.704;9.122;2023-02-08T08:21:22;20.60;24.30
1091;DHT22;534;48.704;9.122;2023-02-08T08:23:48;21.40;23.60
1091;DHT22;534;48.704;9.122;2023-02-08T08:26:17;21.90;23.50
1091;DHT22;534;48.704;9.122;2023-02-08T08:28:45;21.90;22.40
1091;DHT22;534;48.704;9.122;2023-02-08T08:31:13;20.80;23.10
1091;DHT22;534;48.704;9.122;2023-02-08T08:33:39;20.00;24.30
1091;DHT22;534;48.704;9.122;2023-02-08T08:36:08;18.80;24.80
1091;DHT22;534;48.704;9.122;2023-02-08T08:38:35;17.00;26.00
1091;DHT22;534;48.704;9.122;2023-02-08T08:41:06;14.90;27.40
1091;DHT22;534;48.704;9.122;2023-02-08T08:43:33;13.40;29.30
1091;DHT22;534;48.704;9.122;2023-02-08T08:45:59;11.40;32.00
1091;DHT22;534;48.704;9.122;2023-02-08T08:48:26;9.90;33.20
1091;DHT22;534;48.704;9.122;2023-02-08T08:50:53;7.90;37.00
1091;DHT22;534;48.704;9.122;2023-02-08T08:53:21;7.40;39.00
1091;DHT22;534;48.704;9.122;2023-02-08T08:55:48;6.40;40.00
1091;DHT22;534;48.704;9.122;2023-02-08T08:58:14;5.80;41.90
1091;DHT22;534;48.704;9.122;2023-02-08T09:00:41;4.90;42.80
1091;DHT22;534;48.704;9.122;2023-02-08T09:03:08;4.20;43.90
1091;DHT22;534;48.704;9.122;2023-02-08T09:05:34;3.60;45.80
1091;DHT22;534;48.704;9.122;2023-02-08T09:08:01;3.20;45.90
1091;DHT22;534;48.704;9.122;2023-02-08T09:10:30;3.10;47.20
1091;DHT22;534;48.704;9.122;2023-02-08T09:12:56;2.90;48.10
1091;DHT22;534;48.704;9.122;2023-02-08T09:15:23;2.60;48.50
1091;DHT22;534;48.704;9.122;2023-02-08T09:17:50;2.50;49.70
1091;DHT22;534;48.704;9.122;2023-02-08T09:20:16;2.40;49.90
1091;DHT22;534;48.704;9.122;2023-02-08T09:22:43;2.60;50.60
1091;DHT22;534;48.704;9.122;2023-02-08T09:25:10;2.40;49.90
1091;DHT22;534;48.704;9.122;2023-02-08T09:27:38;2.50;51.20
1091;DHT22;534;48.704;9.122;2023-02-08T09:30:05;2.60;50.40
1091;DHT22;534;48.704;9.122;2023-02-08T09:32:32;2.50;50.50
1091;DHT22;534;48.704;9.122;2023-02-08T09:34:59;2.30;50.50
1091;DHT22;534;48.704;9.122;2023-02-08T09:37:26;2.20;51.50
1091;DHT22;534;48.704;9.122;2023-02-08T09:39:53;2.00;51.60
1091;DHT22;534;48.704;9.122;2023-02-08T09:42:30;1.80;51.50
1091;DHT22;534;48.704;9.122;2023-02-08T09:45:26;1.60;52.10
1091;DHT22;534;48.704;9.122;2023-02-08T09:47:59;1.60;53.20
1091;DHT22;534;48.704;9.122;2023-02-08T09:50:31;1.70;53.00
1091;DHT22;534;48.704;9.122;2023-02-08T09:53:03;1.70;52.60
1091;DHT22;534;48.704;9.122;2023-02-08T09:55:35;1.80;53.20
1091;DHT22;534;48.704;9.122;2023-02-08T09:58:17;1.70;53.20
1091;DHT22;534;48.704;9.122;2023-02-08T10:00:47;1.80;53.50
1091;DHT22;534;48.704;9.122;2023-02-08T10:03:28;1.80;53.80
1091;DHT22;534;48.704;9.122;2023-02-08T10:05:56;1.90;53.80
1091;DHT22;534;48.704;9.122;2023-02-08T10:08:23;2.10;53.50
1091;DHT22;534;48.704;9.122;2023-02-08T10:10:54;2.10;52.60
1091;DHT22;534;48.704;9.122;2023-02-08T10:13:33;2.10;53.00
1091;DHT22;534;48.704;9.122;2023-02-08T10:16:13;2.10;52.70
1091;DHT22;534;48.704;9.122;2023-02-08T10:18:45;2.10;52.20
1091;DHT22;534;48.704;9.122;2023-02-08T10:21:27;2.20;52.90
1091;DHT22;534;48.704;9.122;2023-02-08T10:24:20;2.10;52.60
1091;DHT22;534;48.704;9.122;2023-02-08T10:26:56;2.10;51.90
1091;DHT22;534;48.704;9.122;2023-02-08T10:29:46;2.20;53.30
1091;DHT22;534;48.704;9.122;2023-02-08T10:32:30;2.40;52.80
1091;DHT22;534;48.704;9.122;2023-02-08T10:35:04;2.30;51.70
1091;DHT22;534;48.704;9.122;2023-02-08T10:37:34;2.50;52.40
1091;DHT22;534;48.704;9.122;2023-02-08T10:40:14;2.60;52.20
1091;DHT22;534;48.704;9.122;2023-02-08T10:42:49;2.50;52.10
1091;DHT22;534;48.704;9.122;2023-02-08T10:45:23;2.60;52.80
1091;DHT22;534;48.704;9.122;2023-02-08T10:47:54;2.60;53.00
1091;DHT22;534;48.704;9.122;2023-02-08T10:50:27;2.60;52.70
1091;DHT22;534;48.704;9.122;2023-02-08T10:52:55;2.70;53.10
1091;DHT22;534;48.704;9.122;2023-02-08T10:55:23;2.70;52.40
1091;DHT22;534;48.704;9.122;2023-02-08T10:57:51;2.70;53.30
1091;DHT22;534;48.704;9.122;2023-02-08T11:00:23;2.70;52.90
1091;DHT22;534;48.704;9.122;2023-02-08T11:02:54;2.60;52.70
1091;DHT22;534;48.704;9.122;2023-02-08T11:05:32;2.70;53.50
1091;DHT22;534;48.704;9.122;2023-02-08T11:08:07;2.70;52.70
1091;DHT22;534;48.704;9.122;2023-02-08T11:10:35;2.60;53.00
1091;DHT22;534;48.704;9.122;2023-02-08T11:13:05;2.70;53.50
1091;DHT22;534;48.704;9.122;2023-02-08T11:15:37;2.90;52.80
1091;DHT22;534;48.704;9.122;2023-02-08T11:18:17;3.00;53.10
1091;DHT22;534;48.704;9.122;2023-02-08T11:20:47;3.00;52.20
1091;DHT22;534;48.704;9.122;2023-02-08T11:23:23;3.10;52.70
1091;DHT22;534;48.704;9.122;2023-02-08T11:25:52;3.10;52.30
1091;DHT22;534;48.704;9.122;2023-02-08T11:28:25;3.00;52.60
1091;DHT22;534;48.704;9.122;2023-02-08T11:30:58;3.00;52.60
1091;DHT22;534;48.704;9.122;2023-02-08T11:33:27;3.00;53.30
1091;DHT22;534;48.704;9.122;2023-02-08T11:36:00;3.00;52.70
1091;DHT22;534;48.704;9.122;2023-02-08T11:38:28;3.20;53.50
1091;DHT22;534;48.704;9.122;2023-02-08T11:40:58;3.20;52.60
1091;DHT22;534;48.704;9.122;2023-02-08T11:43:28;3.10;52.60
1091;DHT22;534;48.704;9.122;2023-02-08T11:45:56;3.10;53.30
1091;DHT22;534;48.704;9.122;2023-02-08T11:48:28;3.20;53.50
1091;DHT22;534;48.704;9.122;2023-02-08T11:50:59;3.20;53.50
1091;DHT22;534;48.704;9.122;2023-02-08T11:53:30;3.30;53.80
1091;DHT22;534;48.704;9.122;2023-02-08T11:56:06;3.30;53.80
1091;DHT22;534;48.704;9.122;2023-02-08T11:58:33;3.40;53.70
1091;DHT22;534;48.704;9.122;2023-02-08T12:01:02;3.40;53.80
1091;DHT22;534;48.704;9.122;2023-02-08T12:03:34;3.50;54.80
1091;DHT22;534;48.704;9.122;2023-02-08T12:06:21;3.60;53.60
1091;DHT22;534;48.704;9.122;2023-02-08T12:08:58;3.80;53.90
1091;DHT22;534;48.704;9.122;2023-02-08T12:11:34;3.70;52.70
1091;DHT22;534;48.704;9.122;2023-02-08T12:14:30;3.80;53.40
1091;DHT22;534;48.704;9.122;2023-02-08T12:17:16;3.90;52.10
1091;DHT22;534;48.704;9.122;2023-02-08T12:20:01;3.90;51.40
1091;DHT22;534;48.704;9.122;2023-02-08T12:22:29;3.80;51.20
1091;DHT22;534;48.704;9.122;2023-02-08T12:25:05;3.70;52.00
1091;DHT22;534;48.704;9.122;2023-02-08T12:27:42;3.90;52.90
1091;DHT22;534;48.704;9.122;2023-02-08T12:30:20;4.50;51.30
1091;DHT22;534;48.704;9.122;2023-02-08T12:33:05;4.90;50.90
1091;DHT22;534;48.704;9.122;2023-02-08T12:39:05;5.50;49.10
1091;DHT22;534;48.704;9.122;2023-02-08T12:42:15;5.90;48.40
1091;DHT22;534;48.704;9.122;2023-02-08T12:44:52;6.00;47.40
1091;DHT22;534;48.704;9.122;2023-02-08T12:47:34;6.20;46.40
1091;DHT22;534;48.704;9.122;2023-02-08T12:50:10;6.30;47.50
1091;DHT22;534;48.704;9.122;2023-02-08T12:52:44;6.30;46.50
1091;DHT22;534;48.704;9.122;2023-02-08T12:55:16;6.40;46.00
1091;DHT22;534;48.704;9.122;2023-02-08T12:57:48;6.40;46.80
1091;DHT22;534;48.704;9.122;2023-02-08T13:00:20;6.80;45.60
1091;DHT22;534;48.704;9.122;2023-02-08T13:02:52;6.90;45.10
1091;DHT22;534;48.704;9.122;2023-02-08T13:05:23;6.90;45.40
1091;DHT22;534;48.704;9.122;2023-02-08T13:07:57;6.70;44.50
1091;DHT22;534;48.704;9.122;2023-02-08T13:10:27;6.60;45.30
1091;DHT22;534;48.704;9.122;2023-02-08T13:12:58;6.50;45.70
1091;DHT22;534;48.704;9.122;2023-02-08T13:15:29;6.60;46.00
1091;DHT22;534;48.704;9.122;2023-02-08T13:18:00;7.20;45.50
1091;DHT22;534;48.704;9.122;2023-02-08T13:20:35;7.40;44.20
1091;DHT22;534;48.704;9.122;2023-02-08T13:23:12;7.50;44.50
1091;DHT22;534;48.704;9.122;2023-02-08T13:25:42;8.30;44.20
1091;DHT22;534;48.704;9.122;2023-02-08T13:28:18;9.70;41.70
1091;DHT22;534;48.704;9.122;2023-02-08T13:30:46;10.60;40.30
1091;DHT22;534;48.704;9.122;2023-02-08T13:33:21;12.40;36.80
1091;DHT22;534;48.704;9.122;2023-02-08T13:35:52;14.30;35.10
1091;DHT22;534;48.704;9.122;2023-02-08T13:38:27;15.20;32.60
1091;DHT22;534;48.704;9.122;2023-02-08T13:41:06;16.00;32.40
1091;DHT22;534;48.704;9.122;2023-02-08T13:43:40;17.00;31.60
1091;DHT22;534;48.704;9.122;2023-02-08T13:46:09;19.20;29.90
1091;DHT22;534;48.704;9.122;2023-02-08T13:48:43;19.50;27.80
1091;DHT22;534;48.704;9.122;2023-02-08T13:54:28;17.90;29.60
1091;DHT22;534;48.704;9.122;2023-02-08T13:56:55;18.30;29.30
1091;DHT22;534;48.704;9.122;2023-02-08T13:59:34;18.30;29.40
1091;DHT22;534;48.704;9.122;2023-02-08T14:02:28;16.80;29.90
1091;DHT22;534;48.704;9.122;2023-02-08T14:05:33;16.30;31.80
1091;DHT22;534;48.704;9.122;2023-02-08T14:08:03;16.20;32.00
1091;DHT22;534;48.704;9.122;2023-02-08T14:10:45;15.80;31.90
1091;DHT22;534;48.704;9.122;2023-02-08T14:13:22;16.30;31.90
1091;DHT22;534;48.704;9.122;2023-02-08T14:16:21;15.90;32.20
1091;DHT22;534;48.704;9.122;2023-02-08T14:18:51;16.40;32.00
1091;DHT22;534;48.704;9.122;2023-02-08T14:21:27;16.50;31.80
1091;DHT22;534;48.704;9.122;2023-02-08T14:24:00;16.10;32.20
1091;DHT22;534;48.704;9.122;2023-02-08T14:26:28;16.20;32.10
1091;DHT22;534;48.704;9.122;2023-02-08T14:28:58;15.80;32.40
1091;DHT22;534;48.704;9.122;2023-02-08T14:31:36;15.60;32.40
1091;DHT22;534;48.704;9.122;2023-02-08T14:34:03;15.40;32.70
1091;DHT22;534;48.704;9.122;2023-02-08T14:36:32;15.20;32.60
1091;DHT22;534;48.704;9.122;2023-02-08T14:39:20;15.50;32.80
1091;DHT22;534;48.704;9.122;2023-02-08T14:41:54;15.60;32.60
1091;DHT22;534;48.704;9.122;2023-02-08T14:45:02;15.40;33.30
1091;DHT22;534;48.704;9.122;2023-02-08T14:47:53;15.10;33.30
1091;DHT22;534;48.704;9.122;2023-02-08T14:50:28;14.80;34.00
1091;DHT22;534;48.704;9.122;2023-02-08T14:53:02;15.30;33.80
1091;DHT22;534;48.704;9.122;2023-02-08T14:55:31;15.40;33.50
1091;DHT22;534;48.704;9.122;2023-02-08T14:58:05;14.30;34.90
1091;DHT22;534;48.704;9.122;2023-02-08T15:00:35;12.90;36.90
1091;DHT22;534;48.704;9.122;2023-02-08T15:03:04;13.00;37.50
1091;DHT22;534;48.704;9.122;2023-02-08T15:05:43;11.90;38.30
1091;DHT22;534;48.704;9.122;2023-02-08T15:08:12;10.80;39.80
1091;DHT22;534;48.704;9.122;2023-02-08T15:10:40;10.50;40.60
1091;DHT22;534;48.704;9.122;2023-02-08T15:13:19;10.20;40.90
1091;DHT22;534;48.704;9.122;2023-02-08T15:15:51;9.40;42.70
1091;DHT22;534;48.704;9.122;2023-02-08T15:18:22;9.00;43.30
1091;DHT22;534;48.704;9.122;2023-02-08T15:20:59;8.70;43.60
1091;DHT22;534;48.704;9.122;2023-02-08T15:23:26;8.50;44.40
1091;DHT22;534;48.704;9.122;2023-02-08T15:25:55;7.70;46.00
1091;DHT22;534;48.704;9.122;2023-02-08T15:28:24;7.30;47.20
1091;DHT22;534;48.704;9.122;2023-02-08T15:30:55;6.60;47.60
1091;DHT22;534;48.704;9.122;2023-02-08T15:33:22;6.10;48.90
1091;DHT22;534;48.704;9.122;2023-02-08T15:36:00;6.00;49.80
1091;DHT22;534;48.704;9.122;2023-02-08T15:38:27;5.40;50.00
1091;DHT22;534;48.704;9.122;2023-02-08T15:41:00;5.10;50.70
1091;DHT22;534;48.704;9.122;2023-02-08T15:43:28;4.70;51.60
1091;DHT22;534;48.704;9.122;2023-02-08T15:45:55;4.30;52.20
1091;DHT22;534;48.704;9.122;2023-02-08T15:48:23;4.00;53.10
1091;DHT22;534;48.704;9.122;2023-02-08T15:50:50;3.80;54.10
1091;DHT22;534;48.704;9.122;2023-02-08T15:53:17;3.70;54.30
1091;DHT22;534;48.704;9.122;2023-02-08T15:55:46;3.50;54.80
1091;DHT22;534;48.704;9.122;2023-02-08T15:58:18;3.20;54.90
1091;DHT22;534;48.704;9.122;2023-02-08T16:00:48;3.20;55.50
1091;DHT22;534;48.704;9.122;2023-02-08T16:03:19;3.30;55.50
1091;DHT22;534;48.704;9.122;2023-02-08T16:05:48;3.20;55.50
1091;DHT22;534;48.704;9.122;2023-02-08T16:08:19;3.10;55.60
1091;DHT22;534;48.704;9.122;2023-02-08T16:10:50;2.80;56.50
1091;DHT22;534;48.704;9.122;2023-02-08T16:13:21;2.60;56.60
1091;DHT22;534;48.704;9.122;2023-02-08T16:15:52;2.40;57.30
1091;DHT22;534;48.704;9.122;2023-02-08T16:18:37;2.50;57.60
1091;DHT22;534;48.704;9.122;2023-02-08T16:21:06;2.50;57.50
1091;DHT22;534;48.704;9.122;2023-02-08T16:23:48;2.30;57.90
1091;DHT22;534;48.704;9.122;2023-02-08T16:26:19;2.30;58.40
1091;DHT22;534;48.704;9.122;2023-02-08T16:28:55;2.30;58.50
1091;DHT22;534;48.704;9.122;2023-02-08T16:31:26;2.20;58.90
1091;DHT22;534;48.704;9.122;2023-02-08T16:34:03;2.30;58.90
1091;DHT22;534;48.704;9.122;2023-02-08T16:36:34;2.30;59.30
1091;DHT22;534;48.704;9.122;2023-02-08T16:39:21;2.40;59.20
1091;DHT22;534;48.704;9.122;2023-02-08T16:41:59;2.30;59.40
1091;DHT22;534;48.704;9.122;2023-02-08T16:44:28;2.20;59.80
1091;DHT22;534;48.704;9.122;2023-02-08T16:46:58;2.30;59.90
1091;DHT22;534;48.704;9.122;2023-02-08T16:49:25;2.20;60.00
1091;DHT22;534;48.704;9.122;2023-02-08T16:51:55;2.10;60.20
1091;DHT22;534;48.704;9.122;2023-02-08T16:54:22;2.20;60.40
1091;DHT22;534;48.704;9.122;2023-02-08T16:56:50;2.20;60.30
1091;DHT22;534;48.704;9.122;2023-02-08T16:59:24;2.30;60.40
1091;DHT22;534;48.704;9.122;2023-02-08T17:01:52;2.50;59.90
1091;DHT22;534;48.704;9.122;2023-02-08T17:04:21;2.60;59.60
1091;DHT22;534;48.704;9.122;2023-02-08T17:06:49;2.70;59.30
1091;DHT22;534;48.704;9.122;2023-02-08T17:09:15;2.80;59.20
1091;DHT22;534;48.704;9.122;2023-02-08T17:11:42;3.00;59.10
1091;DHT22;534;48.704;9.122;2023-02-08T17:14:09;3.00;58.70
1091;DHT22;534;48.704;9.122;2023-02-08T17:16:36;3.10;58.60
1091;DHT22;534;48.704;9.122;2023-02-08T17:19:04;3.20;58.40
1091;DHT22;534;48.704;9.122;2023-02-08T17:21:32;3.40;58.40
1091;DHT22;534;48.704;9.122;2023-02-08T17:23:59;3.30;58.30
1091;DHT22;534;48.704;9.122;2023-02-08T17:26:35;3.10;58.40
1091;DHT22;534;48.704;9.122;2023-02-08T17:29:03;3.20;58.70
1091;DHT22;534;48.704;9.122;2023-02-08T17:31:30;3.30;58.60
1091;DHT22;534;48.704;9.122;2023-02-08T17:33:56;3.30;58.30
1091;DHT22;534;48.704;9.122;2023-02-08T17:36:29;3.30;58.50
1091;DHT22;534;48.704;9.122;2023-02-08T17:38:58;3.00;58.80
1091;DHT22;534;48.704;9.122;2023-02-08T17:41:24;3.10;58.80
1091;DHT22;534;48.704;9.122;2023-02-08T17:43:53;3.20;58.70
1091;DHT22;534;48.704;9.122;2023-02-08T17:46:22;3.20;58.90
1091;DHT22;534;48.704;9.122;2023-02-08T17:48:49;3.10;58.90
1091;DHT22;534;48.704;9.122;2023-02-08T17:51:17;3.20;58.80
1091;DHT22;534;48.704;9.122;2023-02-08T17:53:44;2.90;59.40
1091;DHT22;534;48.704;9.122;2023-02-08T17:56:14;2.80;59.90
1091;DHT22;534;48.704;9.122;2023-02-08T17:58:41;2.70;60.00
1091;DHT22;534;48.704;9.122;2023-02-08T18:01:14;2.70;60.40
1091;DHT22;534;48.704;9.122;2023-02-08T18:03:42;2.50;60.90
1091;DHT22;534;48.704;9.122;2023-02-08T18:06:10;2.30;61.70
1091;DHT22;534;48.704;9.122;2023-02-08T18:08:36;2.20;62.10
1091;DHT22;534;48.704;9.122;2023-02-08T18:11:04;2.20;62.20
1091;DHT22;534;48.704;9.122;2023-02-08T18:13:34;1.80;62.80
1091;DHT22;534;48.704;9.122;2023-02-08T18:16:06;1.70;63.60
1091;DHT22;534;48.704;9.122;2023-02-08T18:18:33;1.50;64.40
1091;DHT22;534;48.704;9.122;2023-02-08T18:21:00;1.40;64.40
1091;DHT22;534;48.704;9.122;2023-02-08T18:23:26;1.30;65.00
1091;DHT22;534;48.704;9.122;2023-02-08T18:26:02;1.30;65.20
1091;DHT22;534;48.704;9.122;2023-02-08T18:28:29;1.20;65.50
1091;DHT22;534;48.704;9.122;2023-02-08T18:31:01;1.10;65.70
1091;DHT22;534;48.704;9.122;2023-02-08T18:33:28;1.20;65.90
1091;DHT22;534;48.704;9.122;2023-02-08T18:35:54;1.10;65.70
1091;DHT22;534;48.704;9.122;2023-02-08T18:38:21;1.30;66.00
1091;DHT22;534;48.704;9.122;2023-02-08T18:40:48;1.50;65.10
1091;DHT22;534;48.704;9.122;2023-02-08T18:43:15;1.50;64.80
1091;DHT22;534;48.704;9.122;2023-02-08T18:45:42;1.50;64.90
1091;DHT22;534;48.704;9.122;2023-02-08T18:48:11;1.50;64.70
1091;DHT22;534;48.704;9.122;2023-02-08T18:50:39;1.50;64.70
1091;DHT22;534;48.704;9.122;2023-02-08T18:53:05;1.20;65.40
1091;DHT22;534;48.704;9.122;2023-02-08T18:55:32;1.30;65.70
1091;DHT22;534;48.704;9.122;2023-02-08T18:57:59;1.50;64.90
1091;DHT22;534;48.704;9.122;2023-02-08T19:00:25;1.40;64.70
1091;DHT22;534;48.704;9.122;2023-02-08T19:02:52;1.60;64.90
1091;DHT22;534;48.704;9.122;2023-02-08T19:05:20;1.60;64.50
1091;DHT22;534;48.704;9.122;2023-02-08T19:07:47;1.70;64.50
1091;DHT22;534;48.704;9.122;2023-02-08T19:10:13;1.40;64.90
1091;DHT22;534;48.704;9.122;2023-02-08T19:12:40;1.30;65.50
1091;DHT22;534;48.704;9.122;2023-02-08T19:15:08;1.10;66.10
1091;DHT22;534;48.704;9.122;2023-02-08T19:17:34;0.90;66.80
1091;DHT22;534;48.704;9.122;2023-02-08T19:20:01;0.80;67.30
1091;DHT22;534;48.704;9.122;2023-02-08T19:22:29;0.70;67.60
1091;DHT22;534;48.704;9.122;2023-02-08T19:24:56;0.70;67.90
1091;DHT22;534;48.704;9.122;2023-02-08T19:27:23;0.70;68.40
1091;DHT22;534;48.704;9.122;2023-02-08T19:29:49;1.00;67.50
1091;DHT22;534;48.704;9.122;2023-02-08T19:32:20;1.00;67.00
1091;DHT22;534;48.704;9.122;2023-02-08T19:34:47;1.20;66.50
1091;DHT22;534;48.704;9.122;2023-02-08T19:37:14;1.00;66.50
1091;DHT22;534;48.704;9.122;2023-02-08T19:39:42;0.90;66.90
1091;DHT22;534;48.704;9.122;2023-02-08T19:42:09;0.80;67.40
1091;DHT22;534;48.704;9.122;2023-02-08T19:44:35;0.80;67.80
1091;DHT22;534;48.704;9.122;2023-02-08T19:47:02;0.60;68.20
1091;DHT22;534;48.704;9.122;2023-02-08T19:49:29;0.50;68.70
1091;DHT22;534;48.704;9.122;2023-02-08T19:51:56;0.50;68.80
1091;DHT22;534;48.704;9.122;2023-02-08T19:54:23;0.70;68.70
1091;DHT22;534;48.704;9.122;2023-02-08T19:56:51;0.70;68.30
1091;DHT22;534;48.704;9.122;2023-02-08T19:59:21;0.90;67.80
1091;DHT22;534;48.704;9.122;2023-02-08T20:01:48;1.00;67.00
1091;DHT22;534;48.704;9.122;2023-02-08T20:04:15;1.00;66.80
1091;DHT22;534;48.704;9.122;2023-02-08T20:06:42;0.90;67.30
1091;DHT22;534;48.704;9.122;2023-02-08T20:09:10;1.00;67.00
1091;DHT22;534;48.704;9.122;2023-02-08T20:11:38;1.10;67.00
1091;DHT22;534;48.704;9.122;2023-02-08T20:14:07;1.00;67.10
1091;DHT22;534;48.704;9.122;2023-02-08T20:16:33;1.10;67.00
1091;DHT22;534;48.704;9.122;2023-02-08T20:19:00;1.30;66.40
1091;DHT22;534;48.704;9.122;2023-02-08T20:21:27;1.50;65.90
1091;DHT22;534;48.704;9.122;2023-02-08T20:23:54;1.60;65.40
1091;DHT22;534;48.704;9.122;2023-02-08T20:26:23;1.70;65.20
1091;DHT22;534;48.704;9.122;2023-02-08T20:28:52;1.80;64.90
1091;DHT22;534;48.704;9.122;2023-02-08T20:31:22;1.80;64.50
1091;DHT22;534;48.704;9.122;2023-02-08T20:33:50;1.90;64.30
1091;DHT22;534;48.704;9.122;2023-02-08T20:36:19;1.80;64.50
1091;DHT22;534;48.704;9.122;2023-02-08T20:38:46;1.90;64.60
1091;DHT22;534;48.704;9.122;2023-02-08T20:41:15;1.90;64.60
1091;DHT22;534;48.704;9.122;2023-02-08T20:43:43;1.90;64.50
1091;DHT22;534;48.704;9.122;2023-02-08T20:46:14;1.80;64.50
1091;DHT22;534;48.704;9.122;2023-02-08T20:48:42;1.80;64.70
1091;DHT22;534;48.704;9.122;2023-02-08T20:51:11;1.80;64.50
1091;DHT22;534;48.704;9.122;2023-02-08T20:53:39;1.80;64.60
1091;DHT22;534;48.704;9.122;2023-02-08T20:56:06;1.80;64.80
1091;DHT22;534;48.704;9.122;2023-02-08T20:58:33;1.80;64.70